sensor_id;sensor_type;location;lat;lon;timestamp;temperature;humidity
23100;DHT22;53791;50.696;4.396;2023-05-27T00:00:16;12.90;99.90
23100;DHT22;53791;50.696;4.396;2023-05-27T00:02:44;12.90;99.90
23100;DHT22;53791;50.696;4.396;2023-05-27T00:05:12;12.80;99.90
23100;DHT22;53791;50.696;4.396;2023-05-27T00:07:39;12.60;99.90
23100;DHT22;53791;50.696;4.396;2023-05-27T00:10:07;12.60;99.90
23100;DHT22;53791;50.696;4.396;2023-05-27T00:12:35;12.60;99.90
23100;DHT22;53791;50.696;4.396;2023-05-27T00:15:04;12.70;99.90
23100;DHT22;53791;50.696;4.396;2023-05-27T00:17:32;12.60;99.90
23100;DHT22;53791;50.696;4.396;2023-05-27T00:20:02;12.50;99.90
23100;DHT22;53791;50.696;4.396;2023-05-27T00:22:36;12.40;99.90
23100;DHT22;53791;50.696;4.396;2023-05-27T00:25:01;12.60;99.90
23100;DHT22;53791;50.696;4.396;2023-05-27T00:27:34;12.50;99.90
23100;DHT22;53791;50.696;4.396;2023-05-27T00:29:59;12.40;99.90
23100;DHT22;53791;50.696;4.396;2023-05-27T00:32:27;12.30;99.90
23100;DHT22;53791;50.696;4.396;2023-05-27T00:34:54;12.20;99.90
23100;DHT22;53791;50.696;4.396;2023-05-27T00:37:28;12.10;99.90
23100;DHT22;53791;50.696;4.396;2023-05-27T00:39:59;12.20;99.90
23100;DHT22;53791;50.696;4.396;2023-05-27T00:42:25;12.20;99.90
23100;DHT22;53791;50.696;4.396;2023-05-27T00:44:53;12.10;99.90
23100;DHT22;53791;50.696;4.396;2023-05-27T00:47:20;12.10;99.90
23100;DHT22;53791;50.696;4.396;2023-05-27T00:49:48;12.00;99.90
23100;DHT22;53791;50.696;4.396;2023-05-27T00:52:18;11.90;99.90
23100;DHT22;53791;50.696;4.396;2023-05-27T00:54:46;11.90;99.90
23100;DHT22;53791;50.696;4.396;2023-05-27T00:57:14;11.80;99.90
23100;DHT22;53791;50.696;4.396;2023-05-27T00:59:44;11.80;99.90
23100;DHT22;53791;50.696;4.396;2023-05-27T01:02:11;11.80;99.90
23100;DHT22;53791;50.696;4.396;2023-05-27T01:04:39;11.80;99.90
23100;DHT22;53791;50.696;4.396;2023-05-27T01:07:26;11.90;99.90
23100;DHT22;53791;50.696;4.396;2023-05-27T01:10:00;12.00;99.90
23100;DHT22;53791;50.696;4.396;2023-05-27T01:12:39;12.00;99.90
23100;DHT22;53791;50.696;4.396;2023-05-27T01:15:09;11.90;99.90
23100;DHT22;53791;50.696;4.396;2023-05-27T01:17:37;11.90;99.90
23100;DHT22;53791;50.696;4.396;2023-05-27T01:20:13;11.80;99.90
23100;DHT22;53791;50.696;4.396;2023-05-27T01:22:39;11.80;99.90
23100;DHT22;53791;50.696;4.396;2023-05-27T01:25:10;11.60;99.90
23100;DHT22;53791;50.696;4.396;2023-05-27T01:27:38;11.70;99.90
23100;DHT22;53791;50.696;4.396;2023-05-27T01:30:12;11.60;99.90
23100;DHT22;53791;50.696;4.396;2023-05-27T01:32:42;11.70;99.90
23100;DHT22;53791;50.696;4.396;2023-05-27T01:37:51;11.60;99.90
23100;DHT22;53791;50.696;4.396;2023-05-27T01:40:16;11.60;99.90
23100;DHT22;53791;50.696;4.396;2023-05-27T01:42:44;11.50;99.90
23100;DHT22;53791;50.696;4.396;2023-05-27T01:45:14;11.40;99.90
23100;DHT22;53791;50.696;4.396;2023-05-27T01:47:43;11.30;99.90
23100;DHT22;53791;50.696;4.396;2023-05-27T01:50:11;11.30;99.90
23100;DHT22;53791;50.696;4.396;2023-05-27T01:52:39;11.30;99.90
23100;DHT22;53791;50.696;4.396;2023-05-27T01:55:06;11.30;99.90
23100;DHT22;53791;50.696;4.396;2023-05-27T01:57:34;11.20;99.90
23100;DHT22;53791;50.696;4.396;2023-05-27T02:00:02;11.30;99.90
23100;DHT22;53791;50.696;4.396;2023-05-27T02:02:31;11.20;99.90
23100;DHT22;53791;50.696;4.396;2023-05-27T02:04:59;11.10;99.90
23100;DHT22;53791;50.696;4.396;2023-05-27T02:07:26;11.00;99.90
23100;DHT22;53791;50.696;4.396;2023-05-27T02:09:55;10.90;99.90
23100;DHT22;53791;50.696;4.396;2023-05-27T02:12:23;11.00;99.90
23100;DHT22;53791;50.696;4.396;2023-05-27T02:14:51;10.90;99.90
23100;DHT22;53791;50.696;4.396;2023-05-27T02:17:18;10.90;99.90
23100;DHT22;53791;50.696;4.396;2023-05-27T02:19:46;10.90;99.90
23100;DHT22;53791;50.696;4.396;2023-05-27T02:22:16;11.00;99.90
23100;DHT22;53791;50.696;4.396;2023-05-27T02:24:48;10.90;99.90
23100;DHT22;53791;50.696;4.396;2023-05-27T02:29:47;10.80;99.90
23100;DHT22;53791;50.696;4.396;2023-05-27T02:32:21;10.70;99.90
23100;DHT22;53791;50.696;4.396;2023-05-27T02:34:45;10.80;99.90
23100;DHT22;53791;50.696;4.396;2023-05-27T02:37:14;10.70;99.90
23100;DHT22;53791;50.696;4.396;2023-05-27T02:39:43;10.70;99.90
23100;DHT22;53791;50.696;4.396;2023-05-27T02:42:11;10.60;99.90
23100;DHT22;53791;50.696;4.396;2023-05-27T02:44:38;10.60;99.90
23100;DHT22;53791;50.696;4.396;2023-05-27T02:47:06;10.60;99.90
23100;DHT22;53791;50.696;4.396;2023-05-27T02:49:33;10.40;99.90
23100;DHT22;53791;50.696;4.396;2023-05-27T02:52:01;10.50;99.90
23100;DHT22;53791;50.696;4.396;2023-05-27T02:54:28;10.50;99.90
23100;DHT22;53791;50.696;4.396;2023-05-27T02:56:56;10.40;99.90
23100;DHT22;53791;50.696;4.396;2023-05-27T02:59:23;10.30;99.90
23100;DHT22;53791;50.696;4.396;2023-05-27T03:01:52;10.40;99.90
23100;DHT22;53791;50.696;4.396;2023-05-27T03:04:21;10.50;99.90
23100;DHT22;53791;50.696;4.396;2023-05-27T03:06:48;10.40;99.90
23100;DHT22;53791;50.696;4.396;2023-05-27T03:09:16;10.50;99.90
23100;DHT22;53791;50.696;4.396;2023-05-27T03:11:43;10.50;99.90
23100;DHT22;53791;50.696;4.396;2023-05-27T03:14:11;10.50;99.90
23100;DHT22;53791;50.696;4.396;2023-05-27T03:16:38;10.40;99.90
23100;DHT22;53791;50.696;4.396;2023-05-27T03:19:13;10.40;99.90
23100;DHT22;53791;50.696;4.396;2023-05-27T03:21:37;10.30;99.90
23100;DHT22;53791;50.696;4.396;2023-05-27T03:24:06;10.30;99.90
23100;DHT22;53791;50.696;4.396;2023-05-27T03:26:33;10.10;99.90
23100;DHT22;53791;50.696;4.396;2023-05-27T03:29:01;10.10;99.90
23100;DHT22;53791;50.696;4.396;2023-05-27T03:31:28;10.10;99.90
23100;DHT22;53791;50.696;4.396;2023-05-27T03:33:56;10.20;99.90
23100;DHT22;53791;50.696;4.396;2023-05-27T03:36:24;10.10;99.90
23100;DHT22;53791;50.696;4.396;2023-05-27T03:38:51;10.00;99.90
23100;DHT22;53791;50.696;4.396;2023-05-27T03:41:18;10.00;99.90
23100;DHT22;53791;50.696;4.396;2023-05-27T03:43:49;9.90;99.90
23100;DHT22;53791;50.696;4.396;2023-05-27T03:46:22;9.90;99.90
23100;DHT22;53791;50.696;4.396;2023-05-27T03:48:46;9.80;99.90
23100;DHT22;53791;50.696;4.396;2023-05-27T03:51:13;9.90;99.90
23100;DHT22;53791;50.696;4.396;2023-05-27T03:53:41;10.00;99.90
23100;DHT22;53791;50.696;4.396;2023-05-27T03:56:10;9.90;99.90
23100;DHT22;53791;50.696;4.396;2023-05-27T03:58:38;9.90;99.90
23100;DHT22;53791;50.696;4.396;2023-05-27T04:01:06;9.90;99.90
23100;DHT22;53791;50.696;4.396;2023-05-27T04:03:33;9.80;99.90
23100;DHT22;53791;50.696;4.396;2023-05-27T04:06:01;9.80;99.90
23100;DHT22;53791;50.696;4.396;2023-05-27T04:08:28;9.80;99.90
23100;DHT22;53791;50.696;4.396;2023-05-27T04:10:56;9.70;99.90
23100;DHT22;53791;50.696;4.396;2023-05-27T04:13:28;9.60;99.90
23100;DHT22;53791;50.696;4.396;2023-05-27T04:15:54;9.60;99.90
23100;DHT22;53791;50.696;4.396;2023-05-27T04:18:23;9.60;99.90
23100;DHT22;53791;50.696;4.396;2023-05-27T04:20:51;9.60;99.90
23100;DHT22;53791;50.696;4.396;2023-05-27T04:23:21;9.60;99.90
23100;DHT22;53791;50.696;4.396;2023-05-27T04:25:49;9.60;99.90
23100;DHT22;53791;50.696;4.396;2023-05-27T04:28:19;9.70;99.90
23100;DHT22;53791;50.696;4.396;2023-05-27T04:30:47;9.80;99.90
23100;DHT22;53791;50.696;4.396;2023-05-27T04:33:15;9.70;99.90
23100;DHT22;53791;50.696;4.396;2023-05-27T04:35:43;9.60;99.90
23100;DHT22;53791;50.696;4.396;2023-05-27T04:38:11;9.70;99.90
23100;DHT22;53791;50.696;4.396;2023-05-27T04:40:40;9.60;99.90
23100;DHT22;53791;50.696;4.396;2023-05-27T04:43:09;9.70;99.90
23100;DHT22;53791;50.696;4.396;2023-05-27T04:45:38;9.70;99.90
23100;DHT22;53791;50.696;4.396;2023-05-27T04:48:09;9.50;99.90
23100;DHT22;53791;50.696;4.396;2023-05-27T04:50:36;9.60;99.90
23100;DHT22;53791;50.696;4.396;2023-05-27T04:53:05;9.70;99.90
23100;DHT22;53791;50.696;4.396;2023-05-27T04:55:33;9.70;99.90
23100;DHT22;53791;50.696;4.396;2023-05-27T04:58:01;9.80;99.90
23100;DHT22;53791;50.696;4.396;2023-05-27T05:00:33;9.70;99.90
23100;DHT22;53791;50.696;4.396;2023-05-27T05:03:08;9.70;99.90
23100;DHT22;53791;50.696;4.396;2023-05-27T05:05:37;9.70;99.90
23100;DHT22;53791;50.696;4.396;2023-05-27T05:08:04;9.80;99.90
23100;DHT22;53791;50.696;4.396;2023-05-27T05:10:32;9.80;99.90
23100;DHT22;53791;50.696;4.396;2023-05-27T05:13:00;9.90;99.90
23100;DHT22;53791;50.696;4.396;2023-05-27T05:15:27;10.00;99.90
23100;DHT22;53791;50.696;4.396;2023-05-27T05:17:55;10.00;99.90
23100;DHT22;53791;50.696;4.396;2023-05-27T05:20:27;10.00;99.90
23100;DHT22;53791;50.696;4.396;2023-05-27T05:22:51;10.10;99.90
23100;DHT22;53791;50.696;4.396;2023-05-27T05:25:19;10.10;99.90
23100;DHT22;53791;50.696;4.396;2023-05-27T05:27:46;10.20;99.90
23100;DHT22;53791;50.696;4.396;2023-05-27T05:30:14;10.20;99.90
23100;DHT22;53791;50.696;4.396;2023-05-27T05:32:41;10.20;99.90
23100;DHT22;53791;50.696;4.396;2023-05-27T05:35:09;10.20;99.90
23100;DHT22;53791;50.696;4.396;2023-05-27T05:37:36;10.20;99.90
23100;DHT22;53791;50.696;4.396;2023-05-27T05:40:04;10.30;99.90
23100;DHT22;53791;50.696;4.396;2023-05-27T05:42:32;10.40;99.90
23100;DHT22;53791;50.696;4.396;2023-05-27T05:45:00;10.50;99.90
23100;DHT22;53791;50.696;4.396;2023-05-27T05:50:03;10.80;99.90
23100;DHT22;53791;50.696;4.396;2023-05-27T05:52:31;10.90;99.90
23100;DHT22;53791;50.696;4.396;2023-05-27T05:54:59;11.10;99.90
23100;DHT22;53791;50.696;4.396;2023-05-27T05:57:28;11.10;99.90
23100;DHT22;53791;50.696;4.396;2023-05-27T05:59:57;11.20;99.90
23100;DHT22;53791;50.696;4.396;2023-05-27T06:02:26;11.10;99.90
23100;DHT22;53791;50.696;4.396;2023-05-27T06:05:00;11.10;99.90
23100;DHT22;53791;50.696;4.396;2023-05-27T06:07:24;11.10;99.90
23100;DHT22;53791;50.696;4.396;2023-05-27T06:10:05;11.10;99.90
23100;DHT22;53791;50.696;4.396;2023-05-27T06:12:26;11.20;99.90
23100;DHT22;53791;50.696;4.396;2023-05-27T06:14:59;11.30;99.90
23100;DHT22;53791;50.696;4.396;2023-05-27T06:17:24;11.50;99.90
23100;DHT22;53791;50.696;4.396;2023-05-27T06:19:53;11.60;99.90
23100;DHT22;53791;50.696;4.396;2023-05-27T06:22:22;11.70;99.90
23100;DHT22;53791;50.696;4.396;2023-05-27T06:24:50;11.80;99.90
23100;DHT22;53791;50.696;4.396;2023-05-27T06:27:17;11.90;99.90
23100;DHT22;53791;50.696;4.396;2023-05-27T06:29:48;11.90;99.90
23100;DHT22;53791;50.696;4.396;2023-05-27T06:32:18;12.00;99.90
23100;DHT22;53791;50.696;4.396;2023-05-27T06:34:49;12.30;99.90
23100;DHT22;53791;50.696;4.396;2023-05-27T06:37:20;12.60;99.90
23100;DHT22;53791;50.696;4.396;2023-05-27T06:39:46;12.80;99.90
23100;DHT22;53791;50.696;4.396;2023-05-27T06:42:14;13.00;99.90
23100;DHT22;53791;50.696;4.396;2023-05-27T06:44:47;13.20;99.90
23100;DHT22;53791;50.696;4.396;2023-05-27T06:47:19;13.40;99.90
23100;DHT22;53791;50.696;4.396;2023-05-27T06:49:43;13.70;99.90
23100;DHT22;53791;50.696;4.396;2023-05-27T06:52:11;13.90;99.90
23100;DHT22;53791;50.696;4.396;2023-05-27T06:54:38;13.70;99.90
23100;DHT22;53791;50.696;4.396;2023-05-27T06:57:06;13.70;99.90
23100;DHT22;53791;50.696;4.396;2023-05-27T06:59:34;13.90;99.90
23100;DHT22;53791;50.696;4.396;2023-05-27T07:02:04;14.10;99.90
23100;DHT22;53791;50.696;4.396;2023-05-27T07:04:32;14.30;99.90
23100;DHT22;53791;50.696;4.396;2023-05-27T07:06:59;14.20;99.90
23100;DHT22;53791;50.696;4.396;2023-05-27T07:09:29;14.30;99.90
23100;DHT22;53791;50.696;4.396;2023-05-27T07:12:01;14.50;99.90
23100;DHT22;53791;50.696;4.396;2023-05-27T07:14:30;14.60;99.90
23100;DHT22;53791;50.696;4.396;2023-05-27T07:16:57;14.80;99.90
23100;DHT22;53791;50.696;4.396;2023-05-27T07:19:25;14.80;99.90
23100;DHT22;53791;50.696;4.396;2023-05-27T07:21:53;14.80;99.90
23100;DHT22;53791;50.696;4.396;2023-05-27T07:24:20;14.70;99.90
23100;DHT22;53791;50.696;4.396;2023-05-27T07:26:51;14.70;99.90
23100;DHT22;53791;50.696;4.396;2023-05-27T07:29:21;14.70;99.90
23100;DHT22;53791;50.696;4.396;2023-05-27T07:31:53;15.00;99.90
23100;DHT22;53791;50.696;4.396;2023-05-27T07:34:21;15.20;99.90
23100;DHT22;53791;50.696;4.396;2023-05-27T07:36:48;15.40;99.90
23100;DHT22;53791;50.696;4.396;2023-05-27T07:39:16;15.30;99.90
23100;DHT22;53791;50.696;4.396;2023-05-27T07:41:44;15.20;99.90
23100;DHT22;53791;50.696;4.396;2023-05-27T07:44:14;15.10;99.90
23100;DHT22;53791;50.696;4.396;2023-05-27T07:46:41;15.20;99.90
23100;DHT22;53791;50.696;4.396;2023-05-27T07:49:09;15.10;99.90
23100;DHT22;53791;50.696;4.396;2023-05-27T07:51:43;15.00;99.90
23100;DHT22;53791;50.696;4.396;2023-05-27T07:54:08;15.20;99.90
23100;DHT22;53791;50.696;4.396;2023-05-27T07:56:42;15.40;99.90
23100;DHT22;53791;50.696;4.396;2023-05-27T07:59:08;15.30;99.90
23100;DHT22;53791;50.696;4.396;2023-05-27T08:01:37;15.60;99.90
23100;DHT22;53791;50.696;4.396;2023-05-27T08:04:08;15.70;99.90
23100;DHT22;53791;50.696;4.396;2023-05-27T08:06:36;15.80;99.90
23100;DHT22;53791;50.696;4.396;2023-05-27T08:09:12;16.00;99.90
23100;DHT22;53791;50.696;4.396;2023-05-27T08:11:36;16.40;99.90
23100;DHT22;53791;50.696;4.396;2023-05-27T08:14:03;16.80;99.90
23100;DHT22;53791;50.696;4.396;2023-05-27T08:16:32;16.80;99.90
23100;DHT22;53791;50.696;4.396;2023-05-27T08:19:00;17.20;99.90
23100;DHT22;53791;50.696;4.396;2023-05-27T08:21:28;17.30;99.90
23100;DHT22;53791;50.696;4.396;2023-05-27T08:23:55;17.20;99.90
23100;DHT22;53791;50.696;4.396;2023-05-27T08:26:25;17.30;99.90
23100;DHT22;53791;50.696;4.396;2023-05-27T08:28:54;17.10;99.90
23100;DHT22;53791;50.696;4.396;2023-05-27T08:31:22;17.20;99.90
23100;DHT22;53791;50.696;4.396;2023-05-27T08:33:49;17.00;99.90
23100;DHT22;53791;50.696;4.396;2023-05-27T08:36:17;17.20;99.90
23100;DHT22;53791;50.696;4.396;2023-05-27T08:38:45;17.70;99.90
23100;DHT22;53791;50.696;4.396;2023-05-27T08:41:14;17.70;99.90
23100;DHT22;53791;50.696;4.396;2023-05-27T08:43:44;17.60;99.90
23100;DHT22;53791;50.696;4.396;2023-05-27T08:46:13;17.60;99.90
23100;DHT22;53791;50.696;4.396;2023-05-27T08:48:41;17.80;99.90
23100;DHT22;53791;50.696;4.396;2023-05-27T08:51:09;18.00;99.90
23100;DHT22;53791;50.696;4.396;2023-05-27T08:53:42;18.10;99.90
23100;DHT22;53791;50.696;4.396;2023-05-27T08:56:09;18.40;99.90
23100;DHT22;53791;50.696;4.396;2023-05-27T08:58:39;18.70;99.90
23100;DHT22;53791;50.696;4.396;2023-05-27T09:01:11;19.00;99.90
23100;DHT22;53791;50.696;4.396;2023-05-27T09:03:43;19.10;99.90
23100;DHT22;53791;50.696;4.396;2023-05-27T09:06:12;19.50;99.90
23100;DHT22;53791;50.696;4.396;2023-05-27T09:08:40;19.70;99.90
23100;DHT22;53791;50.696;4.396;2023-05-27T09:11:07;19.60;99.90
23100;DHT22;53791;50.696;4.396;2023-05-27T09:13:35;19.60;99.90
23100;DHT22;53791;50.696;4.396;2023-05-27T09:16:04;19.50;99.90
23100;DHT22;53791;50.696;4.396;2023-05-27T09:18:33;19.80;99.90
23100;DHT22;53791;50.696;4.396;2023-05-27T09:21:01;19.90;99.90
23100;DHT22;53791;50.696;4.396;2023-05-27T09:23:29;20.20;99.90
23100;DHT22;53791;50.696;4.396;2023-05-27T09:25:59;20.20;99.90
23100;DHT22;53791;50.696;4.396;2023-05-27T09:28:34;20.30;99.90
23100;DHT22;53791;50.696;4.396;2023-05-27T09:31:06;20.60;99.90
23100;DHT22;53791;50.696;4.396;2023-05-27T09:33:38;20.70;99.90
23100;DHT22;53791;50.696;4.396;2023-05-27T09:36:05;20.90;99.90
23100;DHT22;53791;50.696;4.396;2023-05-27T09:38:35;21.20;99.90
23100;DHT22;53791;50.696;4.396;2023-05-27T09:41:03;21.00;99.90
23100;DHT22;53791;50.696;4.396;2023-05-27T09:43:37;20.90;99.90
23100;DHT22;53791;50.696;4.396;2023-05-27T09:48:36;21.30;99.90
23100;DHT22;53791;50.696;4.396;2023-05-27T09:51:06;21.00;99.90
23100;DHT22;53791;50.696;4.396;2023-05-27T09:53:39;21.20;99.90
23100;DHT22;53791;50.696;4.396;2023-05-27T09:56:14;21.20;99.90
23100;DHT22;53791;50.696;4.396;2023-05-27T09:58:43;21.60;99.90
23100;DHT22;53791;50.696;4.396;2023-05-27T10:01:10;21.70;99.90
23100;DHT22;53791;50.696;4.396;2023-05-27T10:03:43;21.70;99.90
23100;DHT22;53791;50.696;4.396;2023-05-27T10:06:08;21.80;99.90
23100;DHT22;53791;50.696;4.396;2023-05-27T10:08:36;21.90;99.90
23100;DHT22;53791;50.696;4.396;2023-05-27T10:11:04;22.00;99.90
23100;DHT22;53791;50.696;4.396;2023-05-27T10:13:37;22.00;99.90
23100;DHT22;53791;50.696;4.396;2023-05-27T10:16:02;22.00;99.90
23100;DHT22;53791;50.696;4.396;2023-05-27T10:18:33;22.10;99.90
23100;DHT22;53791;50.696;4.396;2023-05-27T10:21:03;22.30;99.90
23100;DHT22;53791;50.696;4.396;2023-05-27T10:23:30;22.20;99.90
23100;DHT22;53791;50.696;4.396;2023-05-27T10:26:07;22.40;99.90
23100;DHT22;53791;50.696;4.396;2023-05-27T10:28:36;22.40;99.90
23100;DHT22;53791;50.696;4.396;2023-05-27T10:31:07;22.80;99.90
23100;DHT22;53791;50.696;4.396;2023-05-27T10:33:42;22.80;99.90
23100;DHT22;53791;50.696;4.396;2023-05-27T10:36:13;22.60;99.90
23100;DHT22;53791;50.696;4.396;2023-05-27T10:38:42;22.60;99.90
23100;DHT22;53791;50.696;4.396;2023-05-27T10:41:11;22.70;99.90
23100;DHT22;53791;50.696;4.396;2023-05-27T10:43:39;23.00;99.90
23100;DHT22;53791;50.696;4.396;2023-05-27T10:46:37;22.70;99.90
23100;DHT22;53791;50.696;4.396;2023-05-27T10:48:52;22.80;99.90
23100;DHT22;53791;50.696;4.396;2023-05-27T10:51:19;22.90;99.90
23100;DHT22;53791;50.696;4.396;2023-05-27T10:53:47;22.90;99.90
23100;DHT22;53791;50.696;4.396;2023-05-27T10:56:21;22.90;99.90
23100;DHT22;53791;50.696;4.396;2023-05-27T10:58:46;22.70;99.90
23100;DHT22;53791;50.696;4.396;2023-05-27T11:01:16;23.10;99.90
23100;DHT22;53791;50.696;4.396;2023-05-27T11:03:45;23.60;99.90
23100;DHT22;53791;50.696;4.396;2023-05-27T11:06:19;23.70;99.90
23100;DHT22;53791;50.696;4.396;2023-05-27T11:08:49;23.70;99.90
23100;DHT22;53791;50.696;4.396;2023-05-27T11:11:19;23.30;99.90
23100;DHT22;53791;50.696;4.396;2023-05-27T11:13:49;23.30;99.90
23100;DHT22;53791;50.696;4.396;2023-05-27T11:16:18;23.40;99.90
23100;DHT22;53791;50.696;4.396;2023-05-27T11:18:47;24.00;99.90
23100;DHT22;53791;50.696;4.396;2023-05-27T11:21:16;24.30;99.90
23100;DHT22;53791;50.696;4.396;2023-05-27T11:23:47;24.30;99.90
23100;DHT22;53791;50.696;4.396;2023-05-27T11:26:21;24.10;99.90
23100;DHT22;53791;50.696;4.396;2023-05-27T11:28:55;23.80;99.90
23100;DHT22;53791;50.696;4.396;2023-05-27T11:31:29;23.50;99.90
23100;DHT22;53791;50.696;4.396;2023-05-27T11:33:57;22.90;99.90
23100;DHT22;53791;50.696;4.396;2023-05-27T11:36:28;22.80;99.90
23100;DHT22;53791;50.696;4.396;2023-05-27T11:38:58;23.30;99.90
23100;DHT22;53791;50.696;4.396;2023-05-27T11:41:28;23.60;99.90
23100;DHT22;53791;50.696;4.396;2023-05-27T11:44:04;23.40;99.90
23100;DHT22;53791;50.696;4.396;2023-05-27T11:46:40;23.20;99.90
23100;DHT22;53791;50.696;4.396;2023-05-27T11:49:09;22.90;99.90
23100;DHT22;53791;50.696;4.396;2023-05-27T11:51:41;22.90;99.90
23100;DHT22;53791;50.696;4.396;2023-05-27T11:54:23;22.80;99.90
23100;DHT22;53791;50.696;4.396;2023-05-27T11:56:51;22.90;99.90
23100;DHT22;53791;50.696;4.396;2023-05-27T11:59:20;22.80;99.90
23100;DHT22;53791;50.696;4.396;2023-05-27T12:01:52;22.80;99.90
23100;DHT22;53791;50.696;4.396;2023-05-27T12:04:20;23.10;99.90
23100;DHT22;53791;50.696;4.396;2023-05-27T12:06:49;23.30;99.90
23100;DHT22;53791;50.696;4.396;2023-05-27T12:09:22;23.40;99.90
23100;DHT22;53791;50.696;4.396;2023-05-27T12:11:46;23.70;99.90
23100;DHT22;53791;50.696;4.396;2023-05-27T12:14:14;24.20;99.90
23100;DHT22;53791;50.696;4.396;2023-05-27T12:16:46;23.70;99.90
23100;DHT22;53791;50.696;4.396;2023-05-27T12:19:12;23.80;99.90
23100;DHT22;53791;50.696;4.396;2023-05-27T12:21:40;23.80;99.90
23100;DHT22;53791;50.696;4.396;2023-05-27T12:24:10;24.20;99.90
23100;DHT22;53791;50.696;4.396;2023-05-27T12:26:41;24.20;99.90
23100;DHT22;53791;50.696;4.396;2023-05-27T12:29:07;24.70;99.90
23100;DHT22;53791;50.696;4.396;2023-05-27T12:31:36;25.10;99.90
23100;DHT22;53791;50.696;4.396;2023-05-27T12:34:04;25.10;99.90
23100;DHT22;53791;50.696;4.396;2023-05-27T12:36:39;24.60;99.90
23100;DHT22;53791;50.696;4.396;2023-05-27T12:39:02;24.30;99.90
23100;DHT22;53791;50.696;4.396;2023-05-27T12:41:31;24.00;99.90
23100;DHT22;53791;50.696;4.396;2023-05-27T12:44:01;24.40;99.90
23100;DHT22;53791;50.696;4.396;2023-05-27T12:46:29;24.90;99.90
23100;DHT22;53791;50.696;4.396;2023-05-27T12:48:58;25.20;99.90
23100;DHT22;53791;50.696;4.396;2023-05-27T12:51:29;25.10;99.90
23100;DHT22;53791;50.696;4.396;2023-05-27T12:53:57;24.80;99.90
23100;DHT22;53791;50.696;4.396;2023-05-27T12:56:24;24.70;99.90
23100;DHT22;53791;50.696;4.396;2023-05-27T12:58:52;24.90;99.90
23100;DHT22;53791;50.696;4.396;2023-05-27T13:01:19;25.10;99.90
23100;DHT22;53791;50.696;4.396;2023-05-27T13:03:49;24.90;99.90
23100;DHT22;53791;50.696;4.396;2023-05-27T13:06:17;24.30;99.90
23100;DHT22;53791;50.696;4.396;2023-05-27T13:08:46;23.50;99.90
23100;DHT22;53791;50.696;4.396;2023-05-27T13:11:15;23.80;99.90
23100;DHT22;53791;50.696;4.396;2023-05-27T13:13:43;24.00;99.90
23100;DHT22;53791;50.696;4.396;2023-05-27T13:16:11;24.20;99.90
23100;DHT22;53791;50.696;4.396;2023-05-27T13:18:39;24.60;99.90
23100;DHT22;53791;50.696;4.396;2023-05-27T13:21:06;25.10;99.90
23100;DHT22;53791;50.696;4.396;2023-05-27T13:23:34;25.00;99.90
23100;DHT22;53791;50.696;4.396;2023-05-27T13:26:03;25.30;99.90
23100;DHT22;53791;50.696;4.396;2023-05-27T13:28:31;25.70;99.90
23100;DHT22;53791;50.696;4.396;2023-05-27T13:31:02;25.90;99.90
23100;DHT22;53791;50.696;4.396;2023-05-27T13:33:30;25.90;99.90
23100;DHT22;53791;50.696;4.396;2023-05-27T13:35:59;26.40;99.90
23100;DHT22;53791;50.696;4.396;2023-05-27T13:38:28;26.50;99.90
23100;DHT22;53791;50.696;4.396;2023-05-27T13:40:55;26.80;99.90
23100;DHT22;53791;50.696;4.396;2023-05-27T13:43:26;26.60;99.90
23100;DHT22;53791;50.696;4.396;2023-05-27T13:45:57;26.80;99.90
23100;DHT22;53791;50.696;4.396;2023-05-27T13:48:24;26.60;99.90
23100;DHT22;53791;50.696;4.396;2023-05-27T13:50:52;26.10;99.90
23100;DHT22;53791;50.696;4.396;2023-05-27T13:53:19;25.70;99.90
23100;DHT22;53791;50.696;4.396;2023-05-27T13:55:47;25.00;99.90
23100;DHT22;53791;50.696;4.396;2023-05-27T13:58:14;24.50;99.90
23100;DHT22;53791;50.696;4.396;2023-05-27T14:00:43;24.80;99.90
23100;DHT22;53791;50.696;4.396;2023-05-27T14:03:10;24.90;99.90
23100;DHT22;53791;50.696;4.396;2023-05-27T14:05:38;25.10;99.90
23100;DHT22;53791;50.696;4.396;2023-05-27T14:08:06;24.80;99.90
23100;DHT22;53791;50.696;4.396;2023-05-27T14:10:34;24.40;99.90
23100;DHT22;53791;50.696;4.396;2023-05-27T14:13:02;24.10;99.90
23100;DHT22;53791;50.696;4.396;2023-05-27T14:15:31;24.30;99.90
23100;DHT22;53791;50.696;4.396;2023-05-27T14:17:58;24.80;99.90
23100;DHT22;53791;50.696;4.396;2023-05-27T14:20:41;25.00;99.90
23100;DHT22;53791;50.696;4.396;2023-05-27T14:23:13;25.10;99.90
23100;DHT22;53791;50.696;4.396;2023-05-27T14:25:42;24.80;99.90
23100;DHT22;53791;50.696;4.396;2023-05-27T14:28:09;24.70;99.90
23100;DHT22;53791;50.696;4.396;2023-05-27T14:30:37;24.80;99.90
23100;DHT22;53791;50.696;4.396;2023-05-27T14:33:28;25.30;99.90
23100;DHT22;53791;50.696;4.396;2023-05-27T14:36:00;25.70;99.90
23100;DHT22;53791;50.696;4.396;2023-05-27T14:38:29;25.90;99.90
23100;DHT22;53791;50.696;4.396;2023-05-27T14:40:59;25.30;99.90
23100;DHT22;53791;50.696;4.396;2023-05-27T14:43:31;24.90;99.90
23100;DHT22;53791;50.696;4.396;2023-05-27T14:45:56;24.70;99.90
23100;DHT22;53791;50.696;4.396;2023-05-27T14:48:25;24.70;99.90
23100;DHT22;53791;50.696;4.396;2023-05-27T14:50:54;24.90;99.90
23100;DHT22;53791;50.696;4.396;2023-05-27T14:53:22;24.60;99.90
23100;DHT22;53791;50.696;4.396;2023-05-27T14:55:49;24.70;99.90
23100;DHT22;53791;50.696;4.396;2023-05-27T14:58:24;24.80;99.90
23100;DHT22;53791;50.696;4.396;2023-05-27T15:00:47;25.20;99.90
23100;DHT22;53791;50.696;4.396;2023-05-27T15:03:15;25.20;99.90
23100;DHT22;53791;50.696;4.396;2023-05-27T15:05:43;25.60;99.90
23100;DHT22;53791;50.696;4.396;2023-05-27T15:08:25;25.80;99.90
23100;DHT22;53791;50.696;4.396;2023-05-27T15:10:43;25.70;99.90
23100;DHT22;53791;50.696;4.396;2023-05-27T15:13:11;25.30;99.90
23100;DHT22;53791;50.696;4.396;2023-05-27T15:15:38;25.30;99.90
23100;DHT22;53791;50.696;4.396;2023-05-27T15:18:07;24.60;99.90
23100;DHT22;53791;50.696;4.396;2023-05-27T15:20:35;24.50;99.90
23100;DHT22;53791;50.696;4.396;2023-05-27T15:23:03;24.40;99.90
23100;DHT22;53791;50.696;4.396;2023-05-27T15:25:32;24.50;99.90
23100;DHT22;53791;50.696;4.396;2023-05-27T15:28:00;24.70;99.90
23100;DHT22;53791;50.696;4.396;2023-05-27T15:30:33;25.00;99.90
23100;DHT22;53791;50.696;4.396;2023-05-27T15:32:58;24.90;99.90
23100;DHT22;53791;50.696;4.396;2023-05-27T15:35:31;25.00;99.90
23100;DHT22;53791;50.696;4.396;2023-05-27T15:37:57;25.00;99.90
23100;DHT22;53791;50.696;4.396;2023-05-27T15:40:24;24.60;99.90
23100;DHT22;53791;50.696;4.396;2023-05-27T15:42:54;24.30;99.90
23100;DHT22;53791;50.696;4.396;2023-05-27T15:45:21;24.10;99.90
23100;DHT22;53791;50.696;4.396;2023-05-27T15:47:49;24.20;99.90
23100;DHT22;53791;50.696;4.396;2023-05-27T15:50:18;24.20;99.90
23100;DHT22;53791;50.696;4.396;2023-05-27T15:52:52;24.30;99.90